^^
Saratoga-Weather Station Historical Data
Daily Summary for January 20, 2021 Units:  English    Metric   Both
Daily Weekly Monthly Yearly Custom
  High: Low: Average:
Temperature: 51.6 °F 30.6 °F 42.3 °F
Dew Point: 43.3 °F 29.5 °F 37.6 °F
Humidity: 97% 68% 84%
Wind Speed: 8.1mph 0mph 1.7mph
Wind Gust: 15mph - -
Wind- - SE
Pressure: 29.8 in 29.4 in -
Precipitation: 0.01 in    
Historical Graphs
 
 
Tabular Data for January 20, 2021
Time Temperature Dew Point Pressure Wind Wind Speed Wind Gust Humidity Rainfall Rate (Hourly) solar
00:01 31.3 °F 30.2 °F 29.8 in Calm     96% 0 in 0 W/m2
00:06 31.3 °F 30.2 °F 29.8 in East 0.9 mph 2 mph 96% 0 in 0 W/m2
00:11 31.3 °F 30.2 °F 29.8 in East 2 mph 2 mph 96% 0 in 0 W/m2
00:16 31.3 °F 30.2 °F 29.8 in Calm   2 mph 96% 0 in 0 W/m2
00:21 31.3 °F 30.2 °F 29.8 in Calm   1 mph 96% 0 in 0 W/m2
00:26 31.3 °F 30.2 °F 29.8 in Calm   1 mph 96% 0 in 0 W/m2
00:31 31.3 °F 30.2 °F 29.8 in Calm   2 mph 96% 0 in 0 W/m2
00:36 31.3 °F 30.2 °F 29.8 in SE 2.9 mph 3 mph 96% 0 in 0 W/m2
00:41 31.3 °F 30.6 °F 29.8 in SE 0.9 mph 2 mph 97% 0 in 0 W/m2
00:46 31.3 °F 30.6 °F 29.8 in ESE 2 mph 3 mph 97% 0 in 0 W/m2
00:51 31.3 °F 30.2 °F 29.8 in Calm     96% 0 in 0 W/m2
00:56 31.3 °F 30.2 °F 29.8 in Calm     96% 0 in 0 W/m2
01:01 31.1 °F 30 °F 29.8 in Calm     96% 0 in 0 W/m2
01:06 30.9 °F 29.8 °F 29.8 in Calm     96% 0 in 0 W/m2
01:11 30.9 °F 29.8 °F 29.8 in Calm   2 mph 96% 0 in 0 W/m2
01:16 30.9 °F 29.8 °F 29.8 in Calm   1 mph 96% 0 in 0 W/m2
01:21 30.7 °F 29.7 °F 29.8 in Calm   2 mph 96% 0 in 0 W/m2
01:26 30.7 °F 29.7 °F 29.8 in Calm   1 mph 96% 0 in 0 W/m2
01:31 30.6 °F 29.5 °F 29.8 in Calm   2 mph 96% 0 in 0 W/m2
01:36 30.7 °F 30 °F 29.8 in Calm   2 mph 97% 0 in 0 W/m2
01:41 30.7 °F 29.7 °F 29.8 in ESE 0.9 mph 2 mph 96% 0 in 0 W/m2
01:46 30.9 °F 30.2 °F 29.8 in Calm   2 mph 97% 0 in 0 W/m2
01:51 30.9 °F 30.2 °F 29.8 in Calm   2 mph 97% 0 in 0 W/m2
01:56 30.9 °F 30.2 °F 29.8 in Calm   1 mph 97% 0 in 0 W/m2
02:01 31.1 °F 30.4 °F 29.8 in Calm   1 mph 97% 0 in 0 W/m2
02:07 31.1 °F 30.4 °F 29.8 in ESE 0.9 mph 1 mph 97% 0 in 0 W/m2
02:12 31.3 °F 30.6 °F 29.8 in ESE 2 mph 3 mph 97% 0 in 0 W/m2
02:17 31.3 °F 30.6 °F 29.8 in Calm   2 mph 97% 0 in 0 W/m2
02:22 31.3 °F 30.6 °F 29.8 in Calm   3 mph 97% 0 in 0 W/m2
02:32 31.1 °F 30.4 °F 29.8 in Calm   1 mph 97% 0 in 0 W/m2
02:37 31.1 °F 30.4 °F 29.8 in Calm   1 mph 97% 0 in 0 W/m2
02:42 31.1 °F 30.4 °F 29.8 in Calm     97% 0 in 0 W/m2
02:47 31.1 °F 30.4 °F 29.8 in Calm     97% 0 in 0 W/m2
02:52 31.1 °F 30.4 °F 29.8 in Calm   1 mph 97% 0 in 0 W/m2
02:57 30.9 °F 30.2 °F 29.8 in Calm   2 mph 97% 0 in 0 W/m2
03:07 30.9 °F 30.2 °F 29.8 in ESE 0.9 mph 2 mph 97% 0 in 0 W/m2
03:12 31.1 °F 30.4 °F 29.8 in Calm   2 mph 97% 0 in 0 W/m2
03:17 31.3 °F 30.6 °F 29.8 in Calm     97% 0 in 0 W/m2
03:22 31.3 °F 30.6 °F 29.8 in Calm     97% 0 in 0 W/m2
03:27 31.5 °F 30.7 °F 29.8 in Calm     97% 0 in 0 W/m2
03:42 31.3 °F 30.6 °F 29.8 in Calm   2 mph 97% 0 in 0 W/m2
03:47 31.5 °F 30.7 °F 29.8 in Calm   2 mph 97% 0 in 0 W/m2
03:52 31.5 °F 30.7 °F 29.8 in ESE 0.9 mph 2 mph 97% 0 in 0 W/m2
03:57 31.5 °F 30.7 °F 29.8 in ESE 0.9 mph 2 mph 97% 0 in 0 W/m2
04:02 31.5 °F 30.7 °F 29.8 in ESE 0.9 mph 2 mph 97% 0 in 0 W/m2
04:07 31.5 °F 30.7 °F 29.8 in ESE 0.9 mph 2 mph 97% 0 in 0 W/m2
04:12 31.6 °F 30.9 °F 29.8 in Calm   2 mph 97% 0 in 0 W/m2
04:17 31.6 °F 30.9 °F 29.8 in Calm     97% 0 in 0 W/m2
04:22 31.6 °F 30.9 °F 29.8 in Calm   1 mph 97% 0 in 0 W/m2
04:27 31.8 °F 31.1 °F 29.8 in Calm     97% 0 in 0 W/m2
04:32 31.8 °F 31.1 °F 29.8 in Calm   1 mph 97% 0 in 0 W/m2
04:37 31.8 °F 31.1 °F 29.8 in Calm   1 mph 97% 0 in 0 W/m2
04:42 32 °F 31.3 °F 29.8 in Calm   2 mph 97% 0 in 0 W/m2
04:47 32.2 °F 31.5 °F 29.8 in Calm     97% 0 in 0 W/m2
04:52 32.2 °F 31.5 °F 29.8 in Calm   1 mph 97% 0 in 0 W/m2
04:57 32.2 °F 31.5 °F 29.8 in Calm     97% 0 in 0 W/m2
05:02 32.2 °F 31.5 °F 29.8 in SE 2 mph 2 mph 97% 0 in 0 W/m2
05:07 32.2 °F 31.5 °F 29.8 in Calm   1 mph 97% 0 in 0 W/m2
05:12 32.4 °F 31.6 °F 29.8 in East 2.9 mph 5 mph 97% 0 in 0 W/m2
05:17 32.5 °F 31.8 °F 29.8 in ESE 2 mph 3 mph 97% 0 in 0 W/m2
05:22 32.5 °F 31.8 °F 29.8 in ESE 0.9 mph 5 mph 97% 0 in 0 W/m2
05:27 32.7 °F 32 °F 29.8 in Calm   1 mph 97% 0 in 0 W/m2
05:32 33.1 °F 32.4 °F 29.8 in NE 2 mph 5 mph 97% 0 in 0 W/m2
05:37 34.2 °F 33.4 °F 29.7 in ESE 2.9 mph 3 mph 97% 0 in 0 W/m2
05:42 34.7 °F 34 °F 29.7 in ENE 0.9 mph 5 mph 97% 0 in 0 W/m2
05:47 34.9 °F 34.2 °F 29.7 in ENE 2 mph 2 mph 97% 0 in 0 W/m2
05:52 34.9 °F 34.2 °F 29.7 in Calm   2 mph 97% 0 in 0 W/m2
05:57 34.9 °F 33.8 °F 29.7 in SSE 0.9 mph 2 mph 96% 0 in 0 W/m2
06:02 35.1 °F 34 °F 29.7 in Calm   3 mph 96% 0 in 0 W/m2
06:07 35.4 °F 34.2 °F 29.7 in East 2.9 mph 4 mph 95% 0 in 0 W/m2
06:12 36 °F 34.3 °F 29.7 in South 0.9 mph 4 mph 94% 0 in 0 W/m2
06:17 35.8 °F 34 °F 29.7 in Calm   3 mph 93% 0 in 0 W/m2
06:22 35.8 °F 33.6 °F 29.7 in ENE 2.9 mph 3 mph 92% 0 in 0 W/m2
06:27 36 °F 33.8 °F 29.7 in Calm   2 mph 92% 0 in 0 W/m2
06:32 36.3 °F 34 °F 29.7 in Calm   4 mph 91% 0 in 0 W/m2
06:37 36.9 °F 34 °F 29.7 in East 2.9 mph 3 mph 89% 0 in 0 W/m2
06:42 37 °F 34.2 °F 29.7 in ESE 2 mph 4 mph 89% 0 in 0 W/m2
06:47 36.9 °F 33.6 °F 29.7 in ESE 2 mph 4 mph 88% 0 in 0 W/m2
06:52 36.7 °F 33.4 °F 29.7 in SE 0.9 mph 2 mph 88% 0 in 0 W/m2
06:57 36.1 °F 33.3 °F 29.7 in ESE 2 mph 3 mph 89% 0 in 0 W/m2
07:02 35.8 °F 32.9 °F 29.7 in ESE 2 mph 3 mph 89% 0 in 0 W/m2
07:07 35.6 °F 32.9 °F 29.7 in ESE 2 mph 3 mph 90% 0 in 0 W/m2
07:12 35.4 °F 32.7 °F 29.7 in ESE 0.9 mph 3 mph 90% 0 in 0 W/m2
07:17 35.2 °F 32.5 °F 29.7 in SE 0.9 mph 2 mph 90% 0 in 0 W/m2
07:22 35.2 °F 32.9 °F 29.7 in SE 2 mph 2 mph 91% 0 in 0 W/m2
07:27 35.1 °F 32.7 °F 29.7 in SSE 0.9 mph 2 mph 91% 0 in 0 W/m2
07:32 35.1 °F 32.7 °F 29.7 in SSE 2 mph 3 mph 91% 0 in 0 W/m2
07:37 34.9 °F 32.7 °F 29.7 in Calm   2 mph 92% 0 in 0 W/m2
07:42 34.9 °F 32.7 °F 29.7 in SE 0.9 mph 2 mph 92% 0.01 in 0 W/m2
07:47 34.7 °F 32.5 °F 29.7 in Calm   3 mph 92% 0.01 in 0 W/m2
07:52 34.5 °F 32.4 °F 29.7 in Calm     92% 0.01 in 0 W/m2
07:57 34.5 °F 32.4 °F 29.7 in Calm     92% 0.01 in 0 W/m2
08:02 34.3 °F 32.2 °F 29.7 in Calm     92% 0.01 in 0 W/m2
08:07 34.2 °F 32 °F 29.7 in Calm   1 mph 92% 0.01 in 0 W/m2
08:12 34.2 °F 32.4 °F 29.7 in Calm   1 mph 93% 0.01 in 0 W/m2
08:17 34.2 °F 32.4 °F 29.7 in SE 0.9 mph 3 mph 93% 0.01 in 0 W/m2
08:22 34.2 °F 32.4 °F 29.7 in SE 2 mph 3 mph 93% 0.01 in 0 W/m2
08:27 34.2 °F 32.4 °F 29.7 in SE 0.9 mph 2 mph 93% 0.01 in 0 W/m2
08:32 34.2 °F 32.4 °F 29.7 in SE 0.9 mph 1 mph 93% 0.01 in 5 W/m2
08:37 34.2 °F 32.5 °F 29.7 in Calm     94% 0.01 in 7 W/m2
08:42 34.2 °F 32.5 °F 29.7 in Calm   1 mph 94% 0 in 9 W/m2
08:47 34.2 °F 32.5 °F 29.7 in Calm     94% 0 in 12 W/m2
08:52 34.2 °F 32.5 °F 29.7 in Calm   1 mph 94% 0 in 14 W/m2
08:57 34.3 °F 32.7 °F 29.7 in Calm   2 mph 94% 0 in 16 W/m2
09:02 34.3 °F 32.7 °F 29.7 in Calm     94% 0 in 21 W/m2
09:07 34.5 °F 32.9 °F 29.7 in SE 2 mph 2 mph 94% 0 in 32 W/m2
09:12 34.9 °F 33.3 °F 29.7 in ESE 2 mph 3 mph 94% 0 in 49 W/m2
09:17 35.2 °F 33.6 °F 29.7 in SE 2 mph 3 mph 94% 0 in 49 W/m2
09:22 35.6 °F 34 °F 29.7 in ENE 4 mph 4 mph 94% 0 in 47 W/m2
09:27 36 °F 34.2 °F 29.7 in Calm   3 mph 93% 0 in 47 W/m2
09:32 36.1 °F 34.3 °F 29.7 in ESE 0.9 mph 4 mph 93% 0 in 53 W/m2
09:37 36.3 °F 34.5 °F 29.7 in Calm     93% 0 in 58 W/m2
09:42 36.5 °F 34.7 °F 29.7 in Calm     93% 0 in 54 W/m2
09:47 36.7 °F 34.9 °F 29.7 in Calm     93% 0 in 53 W/m2
09:52 36.7 °F 34.9 °F 29.7 in Calm     93% 0 in 49 W/m2
09:57 36.7 °F 34.9 °F 29.7 in Calm     93% 0 in 53 W/m2
10:02 36.9 °F 35.1 °F 29.7 in Calm   2 mph 93% 0 in 53 W/m2
10:07 37 °F 35.2 °F 29.7 in Calm   2 mph 93% 0 in 62 W/m2
10:12 37 °F 35.2 °F 29.7 in SE 2 mph 2 mph 93% 0 in 74 W/m2
10:17 37.4 °F 35.6 °F 29.7 in Calm   2 mph 93% 0 in 76 W/m2
10:22 37.6 °F 35.8 °F 29.7 in Calm   1 mph 93% 0 in 76 W/m2
10:27 37.8 °F 36 °F 29.7 in SE 0.9 mph 3 mph 93% 0 in 83 W/m2
10:32 38.1 °F 36.3 °F 29.7 in ENE 2.9 mph 4 mph 93% 0 in 90 W/m2
10:37 38.8 °F 36.7 °F 29.7 in East 2 mph 3 mph 92% 0 in 93 W/m2
10:43 39.4 °F 37 °F 29.7 in East 2.9 mph 3 mph 91% 0 in 107 W/m2
10:48 39.7 °F 37 °F 29.7 in East 0.9 mph 4 mph 90% 0 in 116 W/m2
10:53 39.9 °F 37.2 °F 29.7 in East 0.9 mph 2 mph 90% 0 in 102 W/m2
10:58 40.1 °F 37.4 °F 29.7 in Calm   4 mph 90% 0 in 105 W/m2
11:03 40.3 °F 37.6 °F 29.7 in Calm     90% 0 in 109 W/m2
11:08 40.5 °F 37.8 °F 29.7 in Calm   2 mph 90% 0 in 130 W/m2
11:13 40.6 °F 37.9 °F 29.7 in East 0.9 mph 5 mph 90% 0 in 186 W/m2
11:18 41.2 °F 38.5 °F 29.7 in Calm   4 mph 90% 0 in 193 W/m2
11:23 42.1 °F 38.8 °F 29.7 in North 0.9 mph 2 mph 88% 0 in 165 W/m2
11:28 42.6 °F 39 °F 29.7 in NW 2 mph 4 mph 87% 0 in 142 W/m2
11:33 43.3 °F 39.4 °F 29.7 in ESE 0.9 mph 3 mph 86% 0 in 135 W/m2
11:38 44.2 °F 39.7 °F 29.7 in NE 2.9 mph 4 mph 84% 0 in 135 W/m2
11:43 44.8 °F 39.6 °F 29.7 in ENE 4 mph 5 mph 82% 0 in 149 W/m2
11:48 45.3 °F 39.9 °F 29.7 in Calm   2 mph 81% 0 in 171 W/m2
11:53 45.7 °F 39.9 °F 29.7 in NE 0.9 mph 6 mph 80% 0 in 160 W/m2
11:58 45.9 °F 40.1 °F 29.7 in NNE 4 mph 5 mph 80% 0 in 121 W/m2
12:03 46 °F 39.9 °F 29.7 in NE 2 mph 6 mph 79% 0 in 135 W/m2
12:08 46.2 °F 40.1 °F 29.6 in ENE 4 mph 4 mph 79% 0 in 163 W/m2
12:13 46.6 °F 40.5 °F 29.6 in ENE 2 mph 3 mph 79% 0 in 169 W/m2
12:18 46.8 °F 40.6 °F 29.6 in East 2 mph 4 mph 79% 0 in 171 W/m2
12:23 46.9 °F 40.8 °F 29.6 in NE 0.9 mph 3 mph 79% 0 in 165 W/m2
12:28 47.1 °F 41 °F 29.6 in ENE 2 mph 3 mph 79% 0 in 149 W/m2
12:33 47.3 °F 41.2 °F 29.6 in North 2.9 mph 3 mph 79% 0 in 142 W/m2
12:38 47.7 °F 41.2 °F 29.6 in ENE 2 mph 4 mph 78% 0 in 134 W/m2
12:43 47.8 °F 41.4 °F 29.6 in ESE 8.1 mph 8 mph 78% 0 in 128 W/m2
12:48 48 °F 41.5 °F 29.6 in SE 4 mph 5 mph 78% 0 in 128 W/m2
12:53 48.4 °F 41.5 °F 29.6 in NE 4 mph 7 mph 77% 0 in 128 W/m2
12:58 48.6 °F 41.4 °F 29.6 in North 4 mph 4 mph 76% 0 in 120 W/m2
13:03 48.6 °F 41.7 °F 29.6 in NE 2.9 mph 4 mph 77% 0 in 100 W/m2
13:08 48.7 °F 41.5 °F 29.6 in NNE 0.9 mph 4 mph 76% 0 in 113 W/m2
13:13 48.7 °F 41.9 °F 29.6 in ENE 4.9 mph 5 mph 77% 0 in 121 W/m2
13:18 48.9 °F 41.7 °F 29.6 in NNE 2.9 mph 4 mph 76% 0 in 137 W/m2
13:23 49.1 °F 42.3 °F 29.6 in NNW 8.1 mph 8 mph 77% 0 in 118 W/m2
13:28 49.3 °F 42.1 °F 29.6 in NW 2 mph 4 mph 76% 0 in 95 W/m2
13:33 49.3 °F 42.1 °F 29.6 in North 2 mph 4 mph 76% 0 in 91 W/m2
13:38 49.5 °F 42.3 °F 29.6 in ENE 6.9 mph 7 mph 76% 0 in 91 W/m2
13:43 49.5 °F 41.9 °F 29.6 in North 2.9 mph 7 mph 75% 0 in 76 W/m2
13:48 49.5 °F 42.3 °F 29.6 in NE 6 mph 6 mph 76% 0 in 56 W/m2
13:53 49.6 °F 42.1 °F 29.6 in NNW 2.9 mph 5 mph 75% 0 in 54 W/m2
13:58 49.6 °F 42.4 °F 29.6 in North 2.9 mph 3 mph 76% 0 in 51 W/m2
14:03 49.8 °F 42.3 °F 29.6 in Calm   6 mph 75% 0 in 44 W/m2
14:08 50.2 °F 42.6 °F 29.6 in ENE 4.9 mph 8 mph 75% 0 in 42 W/m2
14:13 50.4 °F 42.8 °F 29.6 in Calm   4 mph 75% 0 in 58 W/m2
14:18 50.4 °F 42.8 °F 29.6 in NE 0.9 mph 7 mph 75% 0 in 77 W/m2
14:23 50.5 °F 43 °F 29.6 in NNE 2 mph 4 mph 75% 0 in 105 W/m2
14:28 50.4 °F 42.8 °F 29.6 in WNW 4 mph 9 mph 75% 0 in 125 W/m2
14:33 50.4 °F 42.8 °F 29.6 in WNW 2.9 mph 6 mph 75% 0 in 125 W/m2
14:38 50.4 °F 42.8 °F 29.6 in WNW 0.9 mph 4 mph 75% 0 in 151 W/m2
14:43 50.5 °F 43 °F 29.6 in NE 2.9 mph 5 mph 75% 0 in 148 W/m2
14:48 50.5 °F 43 °F 29.6 in NNE 0.9 mph 4 mph 75% 0 in 127 W/m2
14:53 50.7 °F 43.2 °F 29.6 in North 2.9 mph 5 mph 75% 0 in 104 W/m2
14:58 50.7 °F 43.2 °F 29.6 in NW 2.9 mph 4 mph 75% 0 in 88 W/m2
15:03 50.7 °F 43.2 °F 29.6 in North 2.9 mph 6 mph 75% 0 in 95 W/m2
15:08 50.7 °F 43.2 °F 29.6 in Calm   3 mph 75% 0 in 90 W/m2
15:13 50.7 °F 43.2 °F 29.6 in WNW 2 mph 7 mph 75% 0 in 84 W/m2
15:18 50.7 °F 43.2 °F 29.6 in NW 2 mph 4 mph 75% 0 in 83 W/m2
15:23 50.7 °F 43.2 °F 29.6 in North 0.9 mph 4 mph 75% 0 in 84 W/m2
15:28 50.7 °F 43.2 °F 29.6 in NW 2.9 mph 5 mph 75% 0 in 88 W/m2
15:33 50.7 °F 43.2 °F 29.6 in NW 4 mph 4 mph 75% 0 in 70 W/m2
15:39 50.7 °F 43.2 °F 29.6 in NE 0.9 mph 2 mph 75% 0 in 54 W/m2
15:44 50.5 °F 43.3 °F 29.6 in NW 4 mph 9 mph 76% 0 in 42 W/m2
15:49 50.5 °F 43.3 °F 29.6 in NNE 0.9 mph 4 mph 76% 0 in 40 W/m2
15:54 50.5 °F 43.3 °F 29.6 in WNW 2 mph 2 mph 76% 0 in 46 W/m2
15:59 50.4 °F 43.2 °F 29.6 in Calm   3 mph 76% 0 in 44 W/m2
16:04 50.4 °F 43.2 °F 29.5 in NNW 2 mph 5 mph 76% 0 in 47 W/m2
16:09 50.2 °F 43 °F 29.5 in Calm   4 mph 76% 0 in 46 W/m2
16:14 50.2 °F 43 °F 29.5 in ENE 0.9 mph 6 mph 76% 0 in 46 W/m2
16:19 50.2 °F 43 °F 29.5 in NNW 4 mph 5 mph 76% 0 in 42 W/m2
16:24 50.2 °F 43 °F 29.5 in ENE 2.9 mph 6 mph 76% 0 in 39 W/m2
16:29 50.4 °F 42.8 °F 29.5 in NNE 4 mph 4 mph 75% 0 in 32 W/m2
16:34 50.4 °F 42.8 °F 29.5 in NNW 2.9 mph 6 mph 75% 0 in 26 W/m2
16:39 50.4 °F 42.8 °F 29.5 in NNE 0.9 mph 5 mph 75% 0 in 18 W/m2
16:44 50.2 °F 42.6 °F 29.5 in NNW 2 mph 6 mph 75% 0 in 12 W/m2
16:49 50.2 °F 42.6 °F 29.5 in NE 2 mph 5 mph 75% 0 in 11 W/m2
16:54 50.2 °F 42.6 °F 29.5 in NE 4 mph 5 mph 75% 0 in 7 W/m2
16:59 50 °F 42.4 °F 29.5 in SW 0.9 mph 5 mph 75% 0 in 7 W/m2
17:04 49.8 °F 42.3 °F 29.5 in North 2 mph 3 mph 75% 0 in 5 W/m2
17:09 49.6 °F 42.1 °F 29.5 in NNE 0.9 mph 4 mph 75% 0 in 0 W/m2
17:14 49.6 °F 42.4 °F 29.5 in NE 0.9 mph 4 mph 76% 0 in 0 W/m2
17:19 49.6 °F 42.4 °F 29.5 in North 0.9 mph 5 mph 76% 0 in 0 W/m2
17:24 49.6 °F 42.4 °F 29.5 in Calm   3 mph 76% 0 in 0 W/m2
17:29 49.5 °F 42.3 °F 29.5 in NE 4 mph 10 mph 76% 0 in 0 W/m2
17:34 49.6 °F 42.4 °F 29.5 in NNE 2.9 mph 5 mph 76% 0 in 0 W/m2
17:39 49.8 °F 42.3 °F 29.5 in ENE 0.9 mph 10 mph 75% 0 in 0 W/m2
17:44 49.6 °F 42.4 °F 29.5 in NNW 2 mph 4 mph 76% 0 in 0 W/m2
17:49 49.6 °F 42.4 °F 29.5 in East 2 mph 6 mph 76% 0 in 0 W/m2
17:54 50.2 °F 42.6 °F 29.5 in North 2 mph 7 mph 75% 0 in 0 W/m2
17:59 50.2 °F 42.6 °F 29.5 in ENE 0.9 mph 4 mph 75% 0 in 0 W/m2
18:04 50 °F 42.4 °F 29.5 in NNE 0.9 mph 7 mph 75% 0 in 0 W/m2
18:09 50 °F 42.4 °F 29.5 in East 0.9 mph 5 mph 75% 0 in 0 W/m2
18:14 50 °F 42.4 °F 29.5 in East 0.9 mph 4 mph 75% 0 in 0 W/m2
18:19 49.8 °F 42.3 °F 29.5 in NE 0.9 mph 8 mph 75% 0 in 0 W/m2
18:24 50 °F 42.1 °F 29.5 in ESE 2.9 mph 4 mph 74% 0 in 0 W/m2
18:29 50.2 °F 42.3 °F 29.5 in North 4 mph 5 mph 74% 0 in 0 W/m2
18:34 50.2 °F 42.3 °F 29.5 in NE 2 mph 2 mph 74% 0 in 0 W/m2
18:39 50 °F 42.1 °F 29.5 in NW 0.9 mph 4 mph 74% 0 in 0 W/m2
18:44 49.8 °F 41.9 °F 29.5 in North 8.1 mph 8 mph 74% 0 in 0 W/m2
18:49 50 °F 42.1 °F 29.5 in NNW 2 mph 7 mph 74% 0 in 0 W/m2
18:54 50.2 °F 42.3 °F 29.5 in East 4 mph 5 mph 74% 0 in 0 W/m2
18:59 50 °F 42.1 °F 29.5 in NNE 2 mph 7 mph 74% 0 in 0 W/m2
19:04 49.8 °F 41.9 °F 29.5 in ENE 0.9 mph 6 mph 74% 0 in 0 W/m2
19:09 49.8 °F 42.3 °F 29.5 in North 0.9 mph 6 mph 75% 0 in 0 W/m2
19:14 49.6 °F 42.1 °F 29.5 in ENE 2.9 mph 5 mph 75% 0 in 0 W/m2
19:19 49.6 °F 42.1 °F 29.5 in NE 2 mph 7 mph 75% 0 in 0 W/m2
19:24 49.8 °F 41.9 °F 29.5 in SSE 0.9 mph 3 mph 74% 0 in 0 W/m2
19:30 49.6 °F 42.1 °F 29.5 in East 0.9 mph 3 mph 75% 0 in 0 W/m2
19:35 49.5 °F 41.9 °F 29.5 in ESE 2.9 mph 4 mph 75% 0 in 0 W/m2
19:40 49.5 °F 41.9 °F 29.5 in ENE 0.9 mph 7 mph 75% 0 in 0 W/m2
19:45 49.5 °F 41.9 °F 29.5 in East 6 mph 7 mph 75% 0 in 0 W/m2
19:50 49.5 °F 41.9 °F 29.5 in ENE 2.9 mph 5 mph 75% 0 in 0 W/m2
19:55 49.5 °F 41.9 °F 29.5 in ENE 2 mph 4 mph 75% 0 in 0 W/m2
20:00 49.5 °F 41.9 °F 29.5 in ENE 2 mph 6 mph 75% 0 in 0 W/m2
20:05 49.5 °F 41.9 °F 29.5 in NNE 2 mph 3 mph 75% 0 in 0 W/m2
20:10 49.6 °F 41.7 °F 29.5 in NE 2.9 mph 5 mph 74% 0 in 0 W/m2
20:15 49.5 °F 41.9 °F 29.5 in NE 4.9 mph 5 mph 75% 0 in 0 W/m2
20:20 49.5 °F 41.9 °F 29.5 in ENE 2 mph 4 mph 75% 0 in 0 W/m2
20:25 49.6 °F 41.7 °F 29.5 in NE 2 mph 6 mph 74% 0 in 0 W/m2
20:30 49.8 °F 41.9 °F 29.5 in North 2 mph 6 mph 74% 0 in 0 W/m2
20:35 49.8 °F 41.9 °F 29.5 in North 0.9 mph 4 mph 74% 0 in 0 W/m2
20:40 49.8 °F 41.9 °F 29.5 in NE 2 mph 5 mph 74% 0 in 0 W/m2
20:45 49.8 °F 41.5 °F 29.5 in Calm   5 mph 73% 0 in 0 W/m2
20:50 50.2 °F 41.9 °F 29.5 in NE 4 mph 5 mph 73% 0 in 0 W/m2
20:55 50.2 °F 41.9 °F 29.5 in NNW 2 mph 4 mph 73% 0 in 0 W/m2
21:00 50.4 °F 42.1 °F 29.5 in ENE 2 mph 5 mph 73% 0 in 0 W/m2
21:05 50.4 °F 42.1 °F 29.5 in ENE 2.9 mph 8 mph 73% 0 in 0 W/m2
21:10 50.5 °F 41.9 °F 29.5 in NNW 2.9 mph 4 mph 72% 0 in 0 W/m2
21:15 50.4 °F 42.1 °F 29.5 in NNE 2 mph 9 mph 73% 0 in 0 W/m2
21:20 50.4 °F 41.7 °F 29.5 in WNW 4 mph 5 mph 72% 0 in 0 W/m2
21:25 50.4 °F 41.7 °F 29.5 in ENE 4 mph 9 mph 72% 0 in 0 W/m2
21:30 50.5 °F 41.9 °F 29.5 in NE 2.9 mph 4 mph 72% 0 in 0 W/m2
21:35 50.5 °F 41.9 °F 29.5 in Calm   5 mph 72% 0 in 0 W/m2
21:40 50.5 °F 41.9 °F 29.5 in SE 4.9 mph 12 mph 72% 0 in 0 W/m2
21:45 50.5 °F 41.9 °F 29.5 in NE 4 mph 6 mph 72% 0 in 0 W/m2
21:50 50.5 °F 41.9 °F 29.5 in ENE 2.9 mph 12 mph 72% 0 in 0 W/m2
21:55 50.7 °F 42.1 °F 29.5 in ENE 2.9 mph 6 mph 72% 0 in 0 W/m2
22:00 50.7 °F 41.7 °F 29.5 in NE 4.9 mph 5 mph 71% 0 in 0 W/m2
22:05 50.9 °F 41.9 °F 29.5 in NE 4 mph 15 mph 71% 0 in 0 W/m2
22:10 50.9 °F 41.9 °F 29.5 in NNW 4 mph 7 mph 71% 0 in 0 W/m2
22:15 50.7 °F 41.7 °F 29.5 in NE 4 mph 15 mph 71% 0 in 0 W/m2
22:20 50.9 °F 41.9 °F 29.5 in NNE 2 mph 11 mph 71% 0 in 0 W/m2
22:25 51.1 °F 41.7 °F 29.5 in NNW 2.9 mph 10 mph 70% 0 in 0 W/m2
22:30 51.1 °F 42.1 °F 29.5 in NNE 0.9 mph 11 mph 71% 0 in 0 W/m2
22:35 50.9 °F 41.9 °F 29.5 in Calm   5 mph 71% 0 in 0 W/m2
22:40 50.9 °F 41.9 °F 29.5 in ENE 2.9 mph 4 mph 71% 0 in 0 W/m2
22:45 50.7 °F 41.7 °F 29.5 in North 2.9 mph 10 mph 71% 0 in 0 W/m2
22:50 50.9 °F 41.9 °F 29.5 in ENE 4 mph 8 mph 71% 0 in 0 W/m2
22:55 50.7 °F 41.7 °F 29.5 in ESE 6.9 mph 7 mph 71% 0 in 0 W/m2
23:00 50.7 °F 41.7 °F 29.5 in ENE 2.9 mph 5 mph 71% 0 in 0 W/m2
23:05 50.7 °F 41.7 °F 29.5 in ENE 2.9 mph 5 mph 71% 0 in 0 W/m2
23:10 51.1 °F 41.7 °F 29.4 in North 2 mph 9 mph 70% 0 in 0 W/m2
23:15 51.3 °F 41.9 °F 29.4 in NNW 2.9 mph 4 mph 70% 0 in 0 W/m2
23:20 51.1 °F 41.7 °F 29.4 in NE 4 mph 8 mph 70% 0 in 0 W/m2
23:25 51.3 °F 41.4 °F 29.4 in ENE 4 mph 8 mph 69% 0 in 0 W/m2
23:30 51.3 °F 41.4 °F 29.4 in North 2.9 mph 7 mph 69% 0 in 0 W/m2
23:35 51.3 °F 41.4 °F 29.4 in NW 2.9 mph 5 mph 69% 0 in 0 W/m2
23:40 51.4 °F 41.2 °F 29.4 in North 4 mph 7 mph 68% 0 in 0 W/m2
23:45 51.4 °F 41.2 °F 29.4 in SE 2 mph 13 mph 68% 0 in 0 W/m2
23:50 51.6 °F 41.4 °F 29.4 in West 6.9 mph 15 mph 68% 0 in 0 W/m2
23:55 51.6 °F 41.4 °F 29.4 in NW 4.9 mph 5 mph 68% 0 in 0 W/m2
Juneau County Weather
Compliments of Weather Underground - 2 mb